sensor_id;sensor_type;location;lat;lon;timestamp;pressure;altitude;pressure_sealevel;temperature;humidity
40075;BME280;26529;51.530;11.754;2023-04-07T00:00:22;100239.97;;;19.84;45.30
40075;BME280;26529;51.530;11.754;2023-04-07T00:02:48;100237.19;;;19.85;45.30
40075;BME280;26529;51.530;11.754;2023-04-07T00:05:14;100237.19;;;19.85;45.30
40075;BME280;26529;51.530;11.754;2023-04-07T00:07:39;100231.97;;;19.84;45.47
40075;BME280;26529;51.530;11.754;2023-04-07T00:10:06;100237.19;;;19.85;45.19
40075;BME280;26529;51.530;11.754;2023-04-07T00:12:32;100241.56;;;19.86;45.28
40075;BME280;26529;51.530;11.754;2023-04-07T00:14:58;100238.25;;;19.83;45.25
40075;BME280;26529;51.530;11.754;2023-04-07T00:17:23;100227.63;;;19.83;45.29
40075;BME280;26529;51.530;11.754;2023-04-07T00:19:49;100232.94;;;19.83;45.29
40075;BME280;26529;51.530;11.754;2023-04-07T00:22:15;100221.53;;;19.80;45.30
40075;BME280;26529;51.530;11.754;2023-04-07T00:24:40;100222.28;;;19.83;45.36
40075;BME280;26529;51.530;11.754;2023-04-07T00:27:05;100219.63;;;19.83;45.20
40075;BME280;26529;51.530;11.754;2023-04-07T00:29:31;100217.91;;;19.82;45.12
40075;BME280;26529;51.530;11.754;2023-04-07T00:31:56;100222.47;;;19.79;45.25
40075;BME280;26529;51.530;11.754;2023-04-07T00:34:22;100223.34;;;19.80;45.32
40075;BME280;26529;51.530;11.754;2023-04-07T00:36:48;100214.41;;;19.81;45.30
40075;BME280;26529;51.530;11.754;2023-04-07T00:39:17;100215.25;;;19.82;45.26
40075;BME280;26529;51.530;11.754;2023-04-07T00:41:44;100213.44;;;19.82;45.18
40075;BME280;26529;51.530;11.754;2023-04-07T00:44:10;100216.19;;;19.80;45.21
40075;BME280;26529;51.530;11.754;2023-04-07T00:46:35;100219.09;;;19.77;45.13
40075;BME280;26529;51.530;11.754;2023-04-07T00:49:01;100207.47;;;19.78;45.33
40075;BME280;26529;51.530;11.754;2023-04-07T00:51:26;100210.13;;;19.78;45.26
40075;BME280;26529;51.530;11.754;2023-04-07T00:53:53;100206.75;;;19.76;45.32
40075;BME280;26529;51.530;11.754;2023-04-07T00:56:19;100199.50;;;19.78;45.26
40075;BME280;26529;51.530;11.754;2023-04-07T00:58:45;100201.41;;;19.76;45.22
40075;BME280;26529;51.530;11.754;2023-04-07T01:01:28;100214.59;;;19.78;45.17
40075;BME280;26529;51.530;11.754;2023-04-07T01:04:00;100208.44;;;19.77;45.06
40075;BME280;26529;51.530;11.754;2023-04-07T01:06:32;100194.28;;;19.77;45.24
40075;BME280;26529;51.530;11.754;2023-04-07T01:12:04;100187.16;;;19.77;45.07
40075;BME280;26529;51.530;11.754;2023-04-07T01:14:39;100190.78;;;19.76;45.37
40075;BME280;26529;51.530;11.754;2023-04-07T01:17:24;100188.94;;;19.77;45.15
40075;BME280;26529;51.530;11.754;2023-04-07T01:20:00;100190.88;;;19.75;45.19
40075;BME280;26529;51.530;11.754;2023-04-07T01:22:40;100197.81;;;19.77;45.08
40075;BME280;26529;51.530;11.754;2023-04-07T01:25:26;100194.41;;;19.75;45.11
40075;BME280;26529;51.530;11.754;2023-04-07T01:27:59;100196.19;;;19.75;45.07
40075;BME280;26529;51.530;11.754;2023-04-07T01:30:37;100189.19;;;19.74;45.15
40075;BME280;26529;51.530;11.754;2023-04-07T01:33:04;100190.00;;;19.74;45.02
40075;BME280;26529;51.530;11.754;2023-04-07T01:35:32;100185.66;;;19.73;45.08
40075;BME280;26529;51.530;11.754;2023-04-07T01:37:59;100182.03;;;19.74;44.96
40075;BME280;26529;51.530;11.754;2023-04-07T01:40:27;100188.22;;;19.75;45.28
40075;BME280;26529;51.530;11.754;2023-04-07T01:42:55;100183.13;;;19.72;45.07
40075;BME280;26529;51.530;11.754;2023-04-07T01:45:22;100183.00;;;19.73;45.16
40075;BME280;26529;51.530;11.754;2023-04-07T01:47:49;100183.75;;;19.75;45.05
40075;BME280;26529;51.530;11.754;2023-04-07T01:50:15;100178.63;;;19.72;45.20
40075;BME280;26529;51.530;11.754;2023-04-07T01:52:41;100183.13;;;19.72;45.24
40075;BME280;26529;51.530;11.754;2023-04-07T01:55:08;100189.28;;;19.72;45.14
40075;BME280;26529;51.530;11.754;2023-04-07T01:57:38;100188.44;;;19.72;45.01
40075;BME280;26529;51.530;11.754;2023-04-07T02:00:11;100196.28;;;19.73;45.22
40075;BME280;26529;51.530;11.754;2023-04-07T02:02:48;100192.88;;;19.71;44.98
40075;BME280;26529;51.530;11.754;2023-04-07T02:05:18;100185.88;;;19.70;45.18
40075;BME280;26529;51.530;11.754;2023-04-07T02:08:04;100182.25;;;19.71;45.10
40075;BME280;26529;51.530;11.754;2023-04-07T02:10:36;100182.34;;;19.70;45.01
40075;BME280;26529;51.530;11.754;2023-04-07T02:13:07;100178.84;;;19.69;45.11
40075;BME280;26529;51.530;11.754;2023-04-07T02:15:35;100174.47;;;19.68;45.09
40075;BME280;26529;51.530;11.754;2023-04-07T02:18:02;100175.31;;;19.69;45.19
40075;BME280;26529;51.530;11.754;2023-04-07T02:20:29;100176.19;;;19.69;45.06
40075;BME280;26529;51.530;11.754;2023-04-07T02:22:55;100176.38;;;19.66;45.08
40075;BME280;26529;51.530;11.754;2023-04-07T02:25:28;100175.41;;;19.67;45.06
40075;BME280;26529;51.530;11.754;2023-04-07T02:27:56;100170.97;;;19.68;45.07
40075;BME280;26529;51.530;11.754;2023-04-07T02:30:22;100171.81;;;19.68;45.11
40075;BME280;26529;51.530;11.754;2023-04-07T02:32:49;100175.41;;;19.67;45.18
40075;BME280;26529;51.530;11.754;2023-04-07T02:35:15;100177.25;;;19.66;44.96
40075;BME280;26529;51.530;11.754;2023-04-07T02:37:41;100174.59;;;19.66;44.99
40075;BME280;26529;51.530;11.754;2023-04-07T02:40:07;100175.41;;;19.67;45.00
40075;BME280;26529;51.530;11.754;2023-04-07T02:42:33;100166.47;;;19.68;44.90
40075;BME280;26529;51.530;11.754;2023-04-07T02:45:01;100175.41;;;19.67;45.03
40075;BME280;26529;51.530;11.754;2023-04-07T02:47:28;100182.66;;;19.65;45.07
40075;BME280;26529;51.530;11.754;2023-04-07T02:49:53;100177.25;;;19.66;44.92
40075;BME280;26529;51.530;11.754;2023-04-07T02:52:19;100172.97;;;19.64;45.07
40075;BME280;26529;51.530;11.754;2023-04-07T02:54:44;100169.47;;;19.63;45.08
40075;BME280;26529;51.530;11.754;2023-04-07T02:57:11;100173.72;;;19.66;45.11
40075;BME280;26529;51.530;11.754;2023-04-07T02:59:38;100164.91;;;19.65;44.98
40075;BME280;26529;51.530;11.754;2023-04-07T03:02:03;100165.84;;;19.64;45.01
40075;BME280;26529;51.530;11.754;2023-04-07T03:04:30;100158.72;;;19.65;44.91
40075;BME280;26529;51.530;11.754;2023-04-07T03:06:57;100156.06;;;19.65;44.89
40075;BME280;26529;51.530;11.754;2023-04-07T03:09:24;100158.81;;;19.63;45.07
40075;BME280;26529;51.530;11.754;2023-04-07T03:11:50;100159.78;;;19.62;44.94
40075;BME280;26529;51.530;11.754;2023-04-07T03:14:16;100160.66;;;19.63;45.02
40075;BME280;26529;51.530;11.754;2023-04-07T03:16:47;100164.13;;;19.63;45.01
40075;BME280;26529;51.530;11.754;2023-04-07T03:19:14;100157.97;;;19.63;45.07
40075;BME280;26529;51.530;11.754;2023-04-07T03:21:43;100159.88;;;19.61;45.01
40075;BME280;26529;51.530;11.754;2023-04-07T03:24:09;100175.84;;;19.61;45.04
40075;BME280;26529;51.530;11.754;2023-04-07T03:26:35;100161.59;;;19.62;44.91
40075;BME280;26529;51.530;11.754;2023-04-07T03:29:02;100165.19;;;19.61;44.93
40075;BME280;26529;51.530;11.754;2023-04-07T03:31:29;100160.75;;;19.61;44.94
40075;BME280;26529;51.530;11.754;2023-04-07T03:33:55;100161.59;;;19.62;44.93
40075;BME280;26529;51.530;11.754;2023-04-07T03:36:21;100158.94;;;19.62;44.87
40075;BME280;26529;51.530;11.754;2023-04-07T03:38:47;100163.50;;;19.60;44.84
40075;BME280;26529;51.530;11.754;2023-04-07T03:41:13;100152.84;;;19.60;44.89
40075;BME280;26529;51.530;11.754;2023-04-07T03:43:40;100158.16;;;19.60;44.83
40075;BME280;26529;51.530;11.754;2023-04-07T03:46:06;100159.03;;;19.60;45.00
40075;BME280;26529;51.530;11.754;2023-04-07T03:48:31;100161.78;;;19.59;44.78
40075;BME280;26529;51.530;11.754;2023-04-07T03:51:03;100168.81;;;19.60;44.89
40075;BME280;26529;51.530;11.754;2023-04-07T03:53:30;100162.66;;;19.59;44.89
40075;BME280;26529;51.530;11.754;2023-04-07T03:55:57;100157.34;;;19.59;44.93
40075;BME280;26529;51.530;11.754;2023-04-07T03:58:38;100161.78;;;19.59;44.83
40075;BME280;26529;51.530;11.754;2023-04-07T04:01:09;100162.66;;;19.59;44.82
40075;BME280;26529;51.530;11.754;2023-04-07T04:03:36;100158.41;;;19.57;44.88
40075;BME280;26529;51.530;11.754;2023-04-07T04:06:17;100154.69;;;19.59;45.02
40075;BME280;26529;51.530;11.754;2023-04-07T04:08:42;100157.44;;;19.58;44.95
40075;BME280;26529;51.530;11.754;2023-04-07T04:11:08;100160.09;;;19.58;44.90
40075;BME280;26529;51.530;11.754;2023-04-07T04:13:42;100165.41;;;19.58;44.83
40075;BME280;26529;51.530;11.754;2023-04-07T04:16:07;100166.28;;;19.58;44.84
40075;BME280;26529;51.530;11.754;2023-04-07T04:18:35;100170.72;;;19.58;44.84
40075;BME280;26529;51.530;11.754;2023-04-07T04:21:02;100172.66;;;19.56;44.98
40075;BME280;26529;51.530;11.754;2023-04-07T04:23:29;100171.69;;;19.57;44.80
40075;BME280;26529;51.530;11.754;2023-04-07T04:25:56;100170.72;;;19.58;44.76
40075;BME280;26529;51.530;11.754;2023-04-07T04:28:25;100165.41;;;19.58;44.93
40075;BME280;26529;51.530;11.754;2023-04-07T04:30:51;100176.25;;;19.55;44.84
40075;BME280;26529;51.530;11.754;2023-04-07T04:33:17;100178.91;;;19.55;44.92
40075;BME280;26529;51.530;11.754;2023-04-07T04:35:52;100177.09;;;19.55;44.77
40075;BME280;26529;51.530;11.754;2023-04-07T04:38:19;100174.53;;;19.53;44.94
40075;BME280;26529;51.530;11.754;2023-04-07T04:41:00;100181.56;;;19.55;44.86
40075;BME280;26529;51.530;11.754;2023-04-07T04:43:29;100181.56;;;19.55;44.94
40075;BME280;26529;51.530;11.754;2023-04-07T04:45:55;100192.19;;;19.55;44.82
40075;BME280;26529;51.530;11.754;2023-04-07T04:48:24;100192.19;;;19.55;44.74
40075;BME280;26529;51.530;11.754;2023-04-07T04:50:49;100193.28;;;19.52;44.86
40075;BME280;26529;51.530;11.754;2023-04-07T04:53:15;100185.19;;;19.53;44.81
40075;BME280;26529;51.530;11.754;2023-04-07T04:55:47;100186.13;;;19.52;44.76
40075;BME280;26529;51.530;11.754;2023-04-07T04:58:20;100183.28;;;19.56;44.64
40075;BME280;26529;51.530;11.754;2023-04-07T05:00:49;100182.66;;;19.52;44.89
40075;BME280;26529;51.530;11.754;2023-04-07T05:03:23;100186.22;;;19.51;44.88
40075;BME280;26529;51.530;11.754;2023-04-07T05:05:50;100176.47;;;19.51;44.83
40075;BME280;26529;51.530;11.754;2023-04-07T05:08:20;100179.03;;;19.53;44.83
40075;BME280;26529;51.530;11.754;2023-04-07T05:10:46;100185.41;;;19.50;44.75
40075;BME280;26529;51.530;11.754;2023-04-07T05:13:13;100179.22;;;19.50;44.73
40075;BME280;26529;51.530;11.754;2023-04-07T05:15:40;100187.00;;;19.53;44.60
40075;BME280;26529;51.530;11.754;2023-04-07T05:18:08;100185.41;;;19.50;44.66
40075;BME280;26529;51.530;11.754;2023-04-07T05:20:33;100181.78;;;19.51;44.97
40075;BME280;26529;51.530;11.754;2023-04-07T05:23:00;100187.09;;;19.51;44.80
40075;BME280;26529;51.530;11.754;2023-04-07T05:25:31;100183.28;;;19.56;44.68
40075;BME280;26529;51.530;11.754;2023-04-07T05:27:59;100189.53;;;19.55;44.49
40075;BME280;26529;51.530;11.754;2023-04-07T05:30:25;100193.78;;;19.44;41.37
40075;BME280;26529;51.530;11.754;2023-04-07T05:32:52;100197.19;;;19.19;38.41
40075;BME280;26529;51.530;11.754;2023-04-07T05:35:28;100189.16;;;19.06;37.48
40075;BME280;26529;51.530;11.754;2023-04-07T05:37:55;100184.31;;;19.13;38.45
40075;BME280;26529;51.530;11.754;2023-04-07T05:40:21;100181.69;;;19.25;39.68
40075;BME280;26529;51.530;11.754;2023-04-07T05:42:47;100188.13;;;19.36;42.24
40075;BME280;26529;51.530;11.754;2023-04-07T05:45:13;100183.88;;;19.46;43.99
40075;BME280;26529;51.530;11.754;2023-04-07T05:47:41;100182.09;;;19.60;44.10
40075;BME280;26529;51.530;11.754;2023-04-07T05:50:09;100186.06;;;19.67;44.19
40075;BME280;26529;51.530;11.754;2023-04-07T05:52:36;100190.13;;;19.73;44.29
40075;BME280;26529;51.530;11.754;2023-04-07T05:55:14;100181.63;;;19.80;44.38
40075;BME280;26529;51.530;11.754;2023-04-07T05:57:40;100184.28;;;19.80;44.80
40075;BME280;26529;51.530;11.754;2023-04-07T06:00:06;100188.44;;;19.85;44.75
40075;BME280;26529;51.530;11.754;2023-04-07T06:02:39;100191.25;;;19.96;44.96
40075;BME280;26529;51.530;11.754;2023-04-07T06:05:08;100187.63;;;19.97;44.77
40075;BME280;26529;51.530;11.754;2023-04-07T06:07:35;100196.69;;;20.08;44.93
40075;BME280;26529;51.530;11.754;2023-04-07T06:10:01;100195.72;;;20.09;44.89
40075;BME280;26529;51.530;11.754;2023-04-07T06:12:26;100195.94;;;20.18;45.18
40075;BME280;26529;51.530;11.754;2023-04-07T06:14:53;100183.25;;;20.22;45.03
40075;BME280;26529;51.530;11.754;2023-04-07T06:17:21;100193.72;;;20.25;44.92
40075;BME280;26529;51.530;11.754;2023-04-07T06:19:47;100197.00;;;20.29;45.08
40075;BME280;26529;51.530;11.754;2023-04-07T06:22:12;100197.66;;;20.32;45.10
40075;BME280;26529;51.530;11.754;2023-04-07T06:24:38;100196.78;;;20.32;45.10
40075;BME280;26529;51.530;11.754;2023-04-07T06:27:03;100190.63;;;20.31;44.90
40075;BME280;26529;51.530;11.754;2023-04-07T06:29:31;100190.63;;;20.31;44.95
40075;BME280;26529;51.530;11.754;2023-04-07T06:31:58;100189.75;;;20.31;44.74
40075;BME280;26529;51.530;11.754;2023-04-07T06:34:24;100193.38;;;20.30;44.78
40075;BME280;26529;51.530;11.754;2023-04-07T06:36:49;100187.22;;;20.29;44.88
40075;BME280;26529;51.530;11.754;2023-04-07T06:39:16;100187.22;;;20.29;44.82
40075;BME280;26529;51.530;11.754;2023-04-07T06:41:42;100193.38;;;20.30;44.75
40075;BME280;26529;51.530;11.754;2023-04-07T06:44:10;100187.22;;;20.29;44.89
40075;BME280;26529;51.530;11.754;2023-04-07T06:46:36;100187.22;;;20.29;44.76
40075;BME280;26529;51.530;11.754;2023-04-07T06:49:02;100194.34;;;20.29;44.82
40075;BME280;26529;51.530;11.754;2023-04-07T06:51:28;100192.56;;;20.29;44.86
40075;BME280;26529;51.530;11.754;2023-04-07T06:53:53;100188.16;;;20.28;44.71
40075;BME280;26529;51.530;11.754;2023-04-07T06:56:19;100182.84;;;20.28;44.86
40075;BME280;26529;51.530;11.754;2023-04-07T06:58:45;100185.41;;;20.30;44.89
40075;BME280;26529;51.530;11.754;2023-04-07T07:01:11;100188.16;;;20.28;44.78
40075;BME280;26529;51.530;11.754;2023-04-07T07:03:36;100189.13;;;20.27;44.71
40075;BME280;26529;51.530;11.754;2023-04-07T07:06:02;100190.81;;;20.28;44.69
40075;BME280;26529;51.530;11.754;2023-04-07T07:08:27;100190.81;;;20.28;44.78
40075;BME280;26529;51.530;11.754;2023-04-07T07:10:54;100193.38;;;20.30;44.79
40075;BME280;26529;51.530;11.754;2023-04-07T07:13:23;100193.28;;;20.31;44.76
40075;BME280;26529;51.530;11.754;2023-04-07T07:15:49;100194.03;;;20.33;44.77
40075;BME280;26529;51.530;11.754;2023-04-07T07:18:16;100195.72;;;20.34;44.87
40075;BME280;26529;51.530;11.754;2023-04-07T07:20:41;100191.25;;;20.35;44.69
40075;BME280;26529;51.530;11.754;2023-04-07T07:23:07;100188.50;;;20.37;44.78
40075;BME280;26529;51.530;11.754;2023-04-07T07:25:32;100191.91;;;20.39;44.78
40075;BME280;26529;51.530;11.754;2023-04-07T07:27:58;100198.91;;;20.40;44.88
40075;BME280;26529;51.530;11.754;2023-04-07T07:30:23;100200.63;;;20.41;44.75
40075;BME280;26529;51.530;11.754;2023-04-07T07:32:49;100191.78;;;20.40;44.92
40075;BME280;26529;51.530;11.754;2023-04-07T07:35:15;100202.31;;;20.42;45.01
40075;BME280;26529;51.530;11.754;2023-04-07T07:37:41;100203.19;;;20.42;44.98
40075;BME280;26529;51.530;11.754;2023-04-07T07:40:08;100207.66;;;20.42;44.64
40075;BME280;26529;51.530;11.754;2023-04-07T07:42:34;100212.03;;;20.43;44.82
40075;BME280;26529;51.530;11.754;2023-04-07T07:45:00;100214.69;;;20.43;44.76
40075;BME280;26529;51.530;11.754;2023-04-07T07:47:25;100214.69;;;20.43;44.70
40075;BME280;26529;51.530;11.754;2023-04-07T07:49:51;100211.06;;;20.44;44.82
40075;BME280;26529;51.530;11.754;2023-04-07T07:52:16;100209.38;;;20.43;45.00
40075;BME280;26529;51.530;11.754;2023-04-07T07:54:42;100207.66;;;20.42;44.71
40075;BME280;26529;51.530;11.754;2023-04-07T07:57:08;100211.28;;;20.41;44.60
40075;BME280;26529;51.530;11.754;2023-04-07T07:59:33;100222.78;;;20.41;44.56
40075;BME280;26529;51.530;11.754;2023-04-07T08:01:59;100222.78;;;20.41;44.62
40075;BME280;26529;51.530;11.754;2023-04-07T08:04:24;100221.94;;;20.41;44.67
40075;BME280;26529;51.530;11.754;2023-04-07T08:06:51;100219.25;;;20.41;44.71
40075;BME280;26529;51.530;11.754;2023-04-07T08:09:17;100221.94;;;20.41;44.50
40075;BME280;26529;51.530;11.754;2023-04-07T08:11:43;100218.53;;;20.39;44.44
40075;BME280;26529;51.530;11.754;2023-04-07T08:14:08;100219.38;;;20.39;44.64
40075;BME280;26529;51.530;11.754;2023-04-07T08:16:34;100218.53;;;20.39;44.79
40075;BME280;26529;51.530;11.754;2023-04-07T08:19:00;100228.31;;;20.38;44.73
40075;BME280;26529;51.530;11.754;2023-04-07T08:21:25;100227.38;;;20.39;44.66
40075;BME280;26529;51.530;11.754;2023-04-07T08:23:53;100229.19;;;20.39;44.59
40075;BME280;26529;51.530;11.754;2023-04-07T08:26:19;100228.31;;;20.38;44.94
40075;BME280;26529;51.530;11.754;2023-04-07T08:28:45;100235.38;;;20.39;44.68
40075;BME280;26529;51.530;11.754;2023-04-07T08:31:11;100229.19;;;20.39;44.74
40075;BME280;26529;51.530;11.754;2023-04-07T08:33:36;100230.88;;;20.40;44.80
40075;BME280;26529;51.530;11.754;2023-04-07T08:36:02;100232.69;;;20.39;44.68
40075;BME280;26529;51.530;11.754;2023-04-07T08:38:27;100232.69;;;20.39;45.02
40075;BME280;26529;51.530;11.754;2023-04-07T08:40:57;100241.53;;;20.40;44.72
40075;BME280;26529;51.530;11.754;2023-04-07T08:43:25;100235.25;;;20.41;44.88
40075;BME280;26529;51.530;11.754;2023-04-07T08:45:52;100232.56;;;20.41;44.86
40075;BME280;26529;51.530;11.754;2023-04-07T08:48:22;100237.06;;;20.40;44.90
40075;BME280;26529;51.530;11.754;2023-04-07T08:50:50;100237.91;;;20.41;44.95
40075;BME280;26529;51.530;11.754;2023-04-07T08:53:22;100234.41;;;20.40;44.90
40075;BME280;26529;51.530;11.754;2023-04-07T08:55:48;100237.91;;;20.41;45.00
40075;BME280;26529;51.530;11.754;2023-04-07T08:58:14;100231.75;;;20.40;44.91
40075;BME280;26529;51.530;11.754;2023-04-07T09:00:42;100230.78;;;20.41;44.97
40075;BME280;26529;51.530;11.754;2023-04-07T09:03:10;100222.78;;;20.41;45.02
40075;BME280;26529;51.530;11.754;2023-04-07T09:05:36;100226.28;;;20.42;44.95
40075;BME280;26529;51.530;11.754;2023-04-07T09:08:02;100233.34;;;20.43;44.87
40075;BME280;26529;51.530;11.754;2023-04-07T09:10:27;100233.34;;;20.43;44.98
40075;BME280;26529;51.530;11.754;2023-04-07T09:12:53;100226.19;;;20.43;44.82
40075;BME280;26529;51.530;11.754;2023-04-07T09:15:19;100229.72;;;20.44;44.90
40075;BME280;26529;51.530;11.754;2023-04-07T09:17:45;100237.69;;;20.44;44.76
40075;BME280;26529;51.530;11.754;2023-04-07T09:20:11;100235.03;;;20.44;44.90
40075;BME280;26529;51.530;11.754;2023-04-07T09:25:14;100232.16;;;20.47;45.02
40075;BME280;26529;51.530;11.754;2023-04-07T09:27:40;100233.97;;;20.46;45.15
40075;BME280;26529;51.530;11.754;2023-04-07T09:30:17;100227.69;;;20.47;44.95
40075;BME280;26529;51.530;11.754;2023-04-07T09:32:43;100226.81;;;20.47;44.94
40075;BME280;26529;51.530;11.754;2023-04-07T09:35:09;100225.03;;;20.47;44.93
40075;BME280;26529;51.530;11.754;2023-04-07T09:37:34;100224.91;;;20.49;45.05
40075;BME280;26529;51.530;11.754;2023-04-07T09:40:00;100218.63;;;20.50;45.09
40075;BME280;26529;51.530;11.754;2023-04-07T09:42:26;100228.31;;;20.51;44.98
40075;BME280;26529;51.530;11.754;2023-04-07T09:44:58;100223.00;;;20.51;45.08
40075;BME280;26529;51.530;11.754;2023-04-07T09:47:27;100219.25;;;20.54;45.09
40075;BME280;26529;51.530;11.754;2023-04-07T09:49:54;100223.63;;;20.55;45.13
40075;BME280;26529;51.530;11.754;2023-04-07T09:52:24;100227.03;;;20.57;45.20
40075;BME280;26529;51.530;11.754;2023-04-07T09:54:51;100218.06;;;20.58;44.99
40075;BME280;26529;51.530;11.754;2023-04-07T09:57:17;100217.97;;;20.59;45.12
40075;BME280;26529;51.530;11.754;2023-04-07T09:59:43;100219.56;;;20.62;45.13
40075;BME280;26529;51.530;11.754;2023-04-07T10:02:10;100219.47;;;20.64;45.04
40075;BME280;26529;51.530;11.754;2023-04-07T10:04:36;100227.22;;;20.67;45.34
40075;BME280;26529;51.530;11.754;2023-04-07T10:07:02;100216.81;;;20.64;45.30
40075;BME280;26529;51.530;11.754;2023-04-07T10:09:28;100212.31;;;20.64;45.08
40075;BME280;26529;51.530;11.754;2023-04-07T10:11:55;100214.16;;;20.64;45.31
40075;BME280;26529;51.530;11.754;2023-04-07T10:14:26;100215.84;;;20.65;45.05
40075;BME280;26529;51.530;11.754;2023-04-07T10:16:52;100214.00;;;20.65;45.23
40075;BME280;26529;51.530;11.754;2023-04-07T10:19:20;100217.53;;;20.66;45.19
40075;BME280;26529;51.530;11.754;2023-04-07T10:21:50;100221.91;;;20.67;45.06
40075;BME280;26529;51.530;11.754;2023-04-07T10:24:53;100218.28;;;20.68;45.04
40075;BME280;26529;51.530;11.754;2023-04-07T10:27:28;100212.13;;;20.67;45.01
40075;BME280;26529;51.530;11.754;2023-04-07T10:29:55;100213.81;;;20.68;45.07
40075;BME280;26529;51.530;11.754;2023-04-07T10:32:22;100222.53;;;20.70;45.09
40075;BME280;26529;51.530;11.754;2023-04-07T10:37:18;100217.09;;;20.72;45.07
40075;BME280;26529;51.530;11.754;2023-04-07T10:39:48;100214.44;;;20.72;45.11
40075;BME280;26529;51.530;11.754;2023-04-07T10:45:08;100211.69;;;20.73;45.08
40075;BME280;26529;51.530;11.754;2023-04-07T10:47:35;100210.72;;;20.74;45.03
40075;BME280;26529;51.530;11.754;2023-04-07T10:50:21;100215.94;;;20.76;44.97
40075;BME280;26529;51.530;11.754;2023-04-07T10:53:06;100213.13;;;20.78;45.13
40075;BME280;26529;51.530;11.754;2023-04-07T10:55:42;100199.81;;;20.78;44.88
40075;BME280;26529;51.530;11.754;2023-04-07T11:03:54;100210.13;;;20.82;44.98
40075;BME280;26529;51.530;11.754;2023-04-07T11:06:21;100210.13;;;20.82;45.01
40075;BME280;26529;51.530;11.754;2023-04-07T11:08:47;100206.63;;;20.82;44.83
40075;BME280;26529;51.530;11.754;2023-04-07T11:11:15;100211.88;;;20.83;44.97
40075;BME280;26529;51.530;11.754;2023-04-07T11:13:48;100208.28;;;20.84;44.90
40075;BME280;26529;51.530;11.754;2023-04-07T11:16:16;100198.44;;;20.85;44.85
40075;BME280;26529;51.530;11.754;2023-04-07T11:18:43;100193.13;;;20.85;44.81
40075;BME280;26529;51.530;11.754;2023-04-07T11:21:09;100200.03;;;20.87;44.82
40075;BME280;26529;51.530;11.754;2023-04-07T11:23:38;100200.91;;;20.88;44.92
40075;BME280;26529;51.530;11.754;2023-04-07T11:26:04;100209.72;;;20.88;44.78
40075;BME280;26529;51.530;11.754;2023-04-07T11:28:30;100203.47;;;20.90;44.92
40075;BME280;26529;51.530;11.754;2023-04-07T11:30:57;100207.81;;;20.91;44.58
40075;BME280;26529;51.530;11.754;2023-04-07T11:33:29;100208.47;;;20.94;44.72
40075;BME280;26529;51.530;11.754;2023-04-07T11:35:59;100207.59;;;20.94;44.76
40075;BME280;26529;51.530;11.754;2023-04-07T11:38:33;100212.19;;;20.92;44.88
40075;BME280;26529;51.530;11.754;2023-04-07T11:41:11;100210.38;;;20.92;44.77
40075;BME280;26529;51.530;11.754;2023-04-07T11:43:38;100214.63;;;20.95;44.79
40075;BME280;26529;51.530;11.754;2023-04-07T11:46:16;100211.00;;;20.96;44.81
40075;BME280;26529;51.530;11.754;2023-04-07T11:48:43;100220.81;;;20.95;44.78
40075;BME280;26529;51.530;11.754;2023-04-07T11:51:20;100219.94;;;20.95;44.82
40075;BME280;26529;51.530;11.754;2023-04-07T11:53:54;100211.00;;;20.96;44.69
40075;BME280;26529;51.530;11.754;2023-04-07T11:56:20;100211.75;;;20.98;44.67
40075;BME280;26529;51.530;11.754;2023-04-07T11:58:54;100208.13;;;20.99;44.52
40075;BME280;26529;51.530;11.754;2023-04-07T12:01:20;100211.50;;;21.01;44.89
40075;BME280;26529;51.530;11.754;2023-04-07T12:04:02;100211.41;;;21.03;44.75
40075;BME280;26529;51.530;11.754;2023-04-07T12:06:33;100213.97;;;21.04;44.79
40075;BME280;26529;51.530;11.754;2023-04-07T12:09:01;100209.47;;;21.05;44.69
40075;BME280;26529;51.530;11.754;2023-04-07T12:11:27;100205.00;;;21.05;44.71
40075;BME280;26529;51.530;11.754;2023-04-07T12:13:53;100217.38;;;21.06;44.85
40075;BME280;26529;51.530;11.754;2023-04-07T12:16:19;100213.72;;;21.07;44.81
40075;BME280;26529;51.530;11.754;2023-04-07T12:18:46;100216.19;;;21.10;44.95
40075;BME280;26529;51.530;11.754;2023-04-07T12:21:12;100213.53;;;21.10;44.84
40075;BME280;26529;51.530;11.754;2023-04-07T12:23:37;100215.22;;;21.11;44.83
40075;BME280;26529;51.530;11.754;2023-04-07T12:26:03;100215.22;;;21.11;44.89
40075;BME280;26529;51.530;11.754;2023-04-07T12:28:28;100211.59;;;21.12;44.88
40075;BME280;26529;51.530;11.754;2023-04-07T12:30:54;100209.66;;;21.14;44.88
40075;BME280;26529;51.530;11.754;2023-04-07T12:33:20;100202.63;;;21.13;44.84
40075;BME280;26529;51.530;11.754;2023-04-07T12:35:46;100205.19;;;21.15;44.92
40075;BME280;26529;51.530;11.754;2023-04-07T12:38:11;100206.88;;;21.16;44.92
40075;BME280;26529;51.530;11.754;2023-04-07T12:40:37;100208.69;;;21.15;44.82
40075;BME280;26529;51.530;11.754;2023-04-07T12:43:04;100203.25;;;21.17;44.99
40075;BME280;26529;51.530;11.754;2023-04-07T12:45:30;100204.13;;;21.18;44.91
40075;BME280;26529;51.530;11.754;2023-04-07T12:47:56;100208.38;;;21.20;45.08
40075;BME280;26529;51.530;11.754;2023-04-07T12:50:22;100198.53;;;21.21;45.03
40075;BME280;26529;51.530;11.754;2023-04-07T12:52:50;100201.22;;;21.21;44.76
40075;BME280;26529;51.530;11.754;2023-04-07T12:55:16;100203.88;;;21.21;44.92
40075;BME280;26529;51.530;11.754;2023-04-07T12:57:42;100205.56;;;21.22;44.91
40075;BME280;26529;51.530;11.754;2023-04-07T13:00:08;100207.28;;;21.23;44.98